Safmarine Nile — VRKZ6 — position and weather

sailwx.info

Track history (hours):
 
Tides and Currents Weather Stations Pressure Air Temp Water Temp Dewpoint Dewpoint Depression Visibility Wind Speed Wind Dir Waves Ship Positions

Safmarine Nile

Last reported at 2018-Jun-21 00:00 UTC. Time now 2018-Jun-21 12:14 UTC.
Position N 23°12' W 017°06'.

Length 211 m; draft 10.7 m.

Type: Ship (hazmat cat A). MMSI: 477552700.

Wind from 020 at 17 knots

Barometer 1016.7 mb
Air temperature 20.0 ° C
Visibility: greater than 10.8 NM
Dewpoint 19.2 ° C
Water temperature 20.0 ° C

Date/timePositionNaut miles runAvg speedWind from/ knotsBaromVisibWave heightAir tempDewpointWater temp
2018-Jun-21 00:00N 23°12' W 017°06'28318.2 020 / 171016.710.8 20.019.220.0
2018-Jun-20 08:23N 27°10' W 014°16'1018.7
2018-Jun-20 07:52N 27°18' W 014°09'718.7
2018-Jun-20 07:30N 27°23' W 014°05'918.4
2018-Jun-20 07:00N 27°30' W 013°58'1118.2
2018-Jun-20 06:26N 27°38' W 013°51'817.8
2018-Jun-20 06:00N 27°44' W 013°46'1017.8
2018-Jun-20 05:28N 27°52' W 013°39'817.9
2018-Jun-20 05:00N 27°58' W 013°33'1017.8
2018-Jun-20 04:27N 28°06' W 013°26'817.9
2018-Jun-20 04:00N 28°13' W 013°21'917.7
2018-Jun-20 03:30N 28°20' W 013°16'917.6
2018-Jun-20 03:00N 28°28' W 013°11'917.5
2018-Jun-20 02:30N 28°34' W 013°04'1417.8
2018-Jun-20 01:42N 28°46' W 012°54'317.9
2018-Jun-20 01:30N 28°49' W 012°52'1118.4
2018-Jun-20 00:55N 28°58' W 012°46'10718.4
2018-Jun-19 19:07N 30°27' W 011°37'418.4
2018-Jun-19 18:55N 30°29' W 011°35'35617.8
2018-Jun-18 22:56N 35°01' W 007°01'1617.6
2018-Jun-18 22:01N 35°12' W 006°47'016.9
2018-Jun-18 22:00N 35°12' W 006°47'75 4.0
2018-Jun-18 03:26N 35°55' W 005°31'3 2.8
2018-Jun-18 02:20N 35°54' W 005°35'1 3.5
2018-Jun-18 01:58N 35°53' W 005°36'1 1.6
2018-Jun-18 01:08N 35°54' W 005°35'0 1.5
2018-Jun-18 00:55N 35°54' W 005°34'3 2.2
2018-Jun-17 23:30N 35°57' W 005°32'2 3.4
2018-Jun-17 22:59N 35°58' W 005°31'2 4.2
2018-Jun-17 22:30N 35°59' W 005°29'4 3.4
2018-Jun-17 21:25N 36°00' W 005°24'2 4.6
2018-Jun-17 21:00N 36°01' W 005°22'3 5.2
2018-Jun-17 20:30N 36°01' W 005°19'3 5.7
2018-Jun-17 20:00N 36°02' W 005°16'510.2
2018-Jun-17 19:30N 36°02' W 005°09'5 9.7
2018-Jun-17 18:58N 36°03' W 005°03'13 1.2
2018-Jun-17 08:47N 35°56' W 004°50'3 1.1
2018-Jun-17 06:08N 35°58' W 004°52'1 1.1
2018-Jun-17 05:26N 35°58' W 004°53'10 0.7
2018-Jun-16 15:37N 35°48' W 004°56'0 1.0
2018-Jun-16 15:26N 35°48' W 004°56'0 0.5
2018-Jun-16 14:58N 35°48' W 004°56'6 0.6
2018-Jun-16 05:38N 35°48' W 005°03'0 1.1
2018-Jun-16 05:29N 35°48' W 005°03'1 2.8
2018-Jun-16 05:00N 35°50' W 005°03'3 6.5
2018-Jun-16 04:29N 35°53' W 005°02'3 6.0
2018-Jun-16 03:57N 35°56' W 005°02'6 4.2
2018-Jun-16 02:34N 36°02' W 005°02'1 3.3
2018-Jun-16 02:22N 36°01' W 005°02'1 1.7
2018-Jun-16 01:58N 36°01' W 005°02'1 1.3
2018-Jun-16 01:24N 36°00' W 005°03'1 1.6
2018-Jun-16 00:58N 35°60' W 005°04'1 1.2
2018-Jun-16 00:31N 35°59' W 005°04'1 1.1
2018-Jun-16 00:00N 35°59' W 005°04'1 1.1
2018-Jun-15 23:30N 35°58' W 005°04'1 1.2
2018-Jun-15 23:00N 35°58' W 005°05'1 1.6
2018-Jun-15 22:30N 35°57' W 005°04'2 0.5
2018-Jun-15 17:47N 35°55' W 005°03'1 4.4
2018-Jun-15 17:29N 35°55' W 005°04'913.5
2018-Jun-15 16:49N 36°00' W 005°13'515.8
2018-Jun-15 16:30N 36°03' W 005°18'610.1
2018-Jun-15 15:53N 36°08' W 005°23'2 0.7
2018-Jun-15 12:45N 36°08' W 005°26'0 0.0
2018-Jun-15 12:18N 36°08' W 005°26'0 0.0
2018-Jun-15 12:00N 36°08' W 005°26'0 0.0
2018-Jun-15 11:30N 36°08' W 005°26'0 0.0
2018-Jun-15 11:00N 36°08' W 005°26'0 0.0
2018-Jun-15 10:27N 36°08' W 005°26'0 0.0
2018-Jun-15 09:57N 36°08' W 005°26'0 0.0
2018-Jun-15 08:48N 36°08' W 005°26'0 0.0
2018-Jun-15 08:18N 36°08' W 005°26'0 0.0
2018-Jun-15 07:51N 36°08' W 005°26'0 0.0
2018-Jun-15 07:06N 36°08' W 005°26'0 0.0
2018-Jun-15 07:00N 36°08' W 005°26'0 0.0
2018-Jun-15 06:24N 36°08' W 005°26'0 0.0
2018-Jun-15 06:00N 36°08' W 005°26'0 0.0
2018-Jun-15 05:23N 36°08' W 005°26'0 0.0
2018-Jun-15 04:59N 36°08' W 005°26'0 0.0
2018-Jun-15 04:22N 36°08' W 005°26'0 0.0
2018-Jun-15 03:58N 36°08' W 005°26'0 0.0
2018-Jun-15 03:28N 36°08' W 005°26'0 0.0
2018-Jun-15 02:55N 36°08' W 005°26'0 0.0
2018-Jun-15 02:28N 36°08' W 005°26'0 0.0
2018-Jun-15 01:55N 36°08' W 005°26'0 0.0
2018-Jun-15 01:28N 36°08' W 005°26'0 0.0
2018-Jun-15 00:58N 36°08' W 005°26'0 0.0
2018-Jun-15 00:28N 36°08' W 005°26'0 0.0
2018-Jun-14 23:58N 36°08' W 005°26'0 0.0
2018-Jun-14 23:30N 36°08' W 005°26'1 2.6
2018-Jun-14 23:00N 36°09' W 005°25'8 8.3
2018-Jun-14 22:05N 36°04' W 005°17'113.3
2018-Jun-14 22:00N 36°04' W 005°16'1013.7
2018-Jun-14 21:14N 36°04' W 005°03'20914.9
2018-Jun-14 07:15N 36°31' W 000°46'515.4
2018-Jun-14 06:58N 36°31' W 000°41'2818.6
2018-Jun-14 05:27N 36°40' W 000°07'3219.1
2018-Jun-14 03:45N 36°48' E 000°32'519.0
2018-Jun-14 03:30N 36°50' E 000°38'918.8
2018-Jun-14 03:00N 36°52' E 000°49'918.8
2018-Jun-14 02:30N 36°54' E 001°00'918.7
2018-Jun-14 02:00N 36°57' E 001°11'918.6
2018-Jun-14 01:30N 36°58' E 001°23'918.5
2018-Jun-14 01:00N 36°60' E 001°34'1018.5
2018-Jun-14 00:29N 37°01' E 001°47'3018.6
2018-Jun-13 22:53N 37°06' E 002°23'57418.2
2018-Jun-12 15:22N 36°17' E 014°16'719.2
2018-Jun-12 14:59N 36°14' E 014°25'1019.7
2018-Jun-12 14:30N 36°10' E 014°35'1019.8
2018-Jun-12 13:59N 36°06' E 014°47'1020.0
2018-Jun-12 13:30N 36°03' E 014°59'1019.7
2018-Jun-12 13:00N 36°01' E 015°10'1019.1
2018-Jun-12 12:29N 36°00' E 015°23'  
Track history (hours):
 
Tides and Currents Weather Stations Pressure Air Temp Water Temp Dewpoint Dewpoint Depression Visibility Wind Speed Wind Dir Waves Ship Positions

Safmarine Nile

Last reported at 2018-Jun-21 00:00 UTC. Time now 2018-Jun-21 12:14 UTC.
Position N 23°12' W 017°06'.

Length 211 m; draft 10.7 m.

Type: Ship (hazmat cat A). MMSI: 477552700.

Wind from 020 at 17 knots

Barometer 1016.7 mb
Air temperature 20.0 ° C
Visibility: greater than 10.8 NM
Dewpoint 19.2 ° C
Water temperature 20.0 ° C

Date/timePositionNaut miles runAvg speedWind from/ knotsBaromVisibWave heightAir tempDewpointWater temp
2018-Jun-21 00:00N 23°12' W 017°06'28318.2 020 / 171016.710.8 20.019.220.0
2018-Jun-20 08:23N 27°10' W 014°16'1018.7
2018-Jun-20 07:52N 27°18' W 014°09'718.7
2018-Jun-20 07:30N 27°23' W 014°05'918.4
2018-Jun-20 07:00N 27°30' W 013°58'1118.2
2018-Jun-20 06:26N 27°38' W 013°51'817.8
2018-Jun-20 06:00N 27°44' W 013°46'1017.8
2018-Jun-20 05:28N 27°52' W 013°39'817.9
2018-Jun-20 05:00N 27°58' W 013°33'1017.8
2018-Jun-20 04:27N 28°06' W 013°26'817.9
2018-Jun-20 04:00N 28°13' W 013°21'917.7
2018-Jun-20 03:30N 28°20' W 013°16'917.6
2018-Jun-20 03:00N 28°28' W 013°11'917.5
2018-Jun-20 02:30N 28°34' W 013°04'1417.8
2018-Jun-20 01:42N 28°46' W 012°54'317.9
2018-Jun-20 01:30N 28°49' W 012°52'1118.4
2018-Jun-20 00:55N 28°58' W 012°46'10718.4
2018-Jun-19 19:07N 30°27' W 011°37'418.4
2018-Jun-19 18:55N 30°29' W 011°35'35617.8
2018-Jun-18 22:56N 35°01' W 007°01'1617.6
2018-Jun-18 22:01N 35°12' W 006°47'016.9
2018-Jun-18 22:00N 35°12' W 006°47'75 4.0
2018-Jun-18 03:26N 35°55' W 005°31'3 2.8
2018-Jun-18 02:20N 35°54' W 005°35'1 3.5
2018-Jun-18 01:58N 35°53' W 005°36'1 1.6
2018-Jun-18 01:08N 35°54' W 005°35'0 1.5
2018-Jun-18 00:55N 35°54' W 005°34'3 2.2
2018-Jun-17 23:30N 35°57' W 005°32'2 3.4
2018-Jun-17 22:59N 35°58' W 005°31'2 4.2
2018-Jun-17 22:30N 35°59' W 005°29'4 3.4
2018-Jun-17 21:25N 36°00' W 005°24'2 4.6
2018-Jun-17 21:00N 36°01' W 005°22'3 5.2
2018-Jun-17 20:30N 36°01' W 005°19'3 5.7
2018-Jun-17 20:00N 36°02' W 005°16'510.2
2018-Jun-17 19:30N 36°02' W 005°09'5 9.7
2018-Jun-17 18:58N 36°03' W 005°03'13 1.2
2018-Jun-17 08:47N 35°56' W 004°50'3 1.1
2018-Jun-17 06:08N 35°58' W 004°52'1 1.1
2018-Jun-17 05:26N 35°58' W 004°53'10 0.7
2018-Jun-16 15:37N 35°48' W 004°56'0 1.0
2018-Jun-16 15:26N 35°48' W 004°56'0 0.5
2018-Jun-16 14:58N 35°48' W 004°56'6 0.6
2018-Jun-16 05:38N 35°48' W 005°03'0 1.1
2018-Jun-16 05:29N 35°48' W 005°03'1 2.8
2018-Jun-16 05:00N 35°50' W 005°03'3 6.5
2018-Jun-16 04:29N 35°53' W 005°02'3 6.0
2018-Jun-16 03:57N 35°56' W 005°02'6 4.2
2018-Jun-16 02:34N 36°02' W 005°02'1 3.3
2018-Jun-16 02:22N 36°01' W 005°02'1 1.7
2018-Jun-16 01:58N 36°01' W 005°02'1 1.3
2018-Jun-16 01:24N 36°00' W 005°03'1 1.6
2018-Jun-16 00:58N 35°60' W 005°04'1 1.2
2018-Jun-16 00:31N 35°59' W 005°04'1 1.1
2018-Jun-16 00:00N 35°59' W 005°04'1 1.1
2018-Jun-15 23:30N 35°58' W 005°04'1 1.2
2018-Jun-15 23:00N 35°58' W 005°05'1 1.6
2018-Jun-15 22:30N 35°57' W 005°04'2 0.5
2018-Jun-15 17:47N 35°55' W 005°03'1 4.4
2018-Jun-15 17:29N 35°55' W 005°04'913.5
2018-Jun-15 16:49N 36°00' W 005°13'515.8
2018-Jun-15 16:30N 36°03' W 005°18'610.1
2018-Jun-15 15:53N 36°08' W 005°23'2 0.7
2018-Jun-15 12:45N 36°08' W 005°26'0 0.0
2018-Jun-15 12:18N 36°08' W 005°26'0 0.0
2018-Jun-15 12:00N 36°08' W 005°26'0 0.0
2018-Jun-15 11:30N 36°08' W 005°26'0 0.0
2018-Jun-15 11:00N 36°08' W 005°26'0 0.0
2018-Jun-15 10:27N 36°08' W 005°26'0 0.0
2018-Jun-15 09:57N 36°08' W 005°26'0 0.0
2018-Jun-15 08:48N 36°08' W 005°26'0 0.0
2018-Jun-15 08:18N 36°08' W 005°26'0 0.0
2018-Jun-15 07:51N 36°08' W 005°26'0 0.0
2018-Jun-15 07:06N 36°08' W 005°26'0 0.0
2018-Jun-15 07:00N 36°08' W 005°26'0 0.0
2018-Jun-15 06:24N 36°08' W 005°26'0 0.0
2018-Jun-15 06:00N 36°08' W 005°26'0 0.0
2018-Jun-15 05:23N 36°08' W 005°26'0 0.0
2018-Jun-15 04:59N 36°08' W 005°26'0 0.0
2018-Jun-15 04:22N 36°08' W 005°26'0 0.0
2018-Jun-15 03:58N 36°08' W 005°26'0 0.0
2018-Jun-15 03:28N 36°08' W 005°26'0 0.0
2018-Jun-15 02:55N 36°08' W 005°26'0 0.0
2018-Jun-15 02:28N 36°08' W 005°26'0 0.0
2018-Jun-15 01:55N 36°08' W 005°26'0 0.0
2018-Jun-15 01:28N 36°08' W 005°26'0 0.0
2018-Jun-15 00:58N 36°08' W 005°26'0 0.0
2018-Jun-15 00:28N 36°08' W 005°26'0 0.0
2018-Jun-14 23:58N 36°08' W 005°26'0 0.0
2018-Jun-14 23:30N 36°08' W 005°26'1 2.6
2018-Jun-14 23:00N 36°09' W 005°25'8 8.3
2018-Jun-14 22:05N 36°04' W 005°17'113.3
2018-Jun-14 22:00N 36°04' W 005°16'1013.7
2018-Jun-14 21:14N 36°04' W 005°03'20914.9
2018-Jun-14 07:15N 36°31' W 000°46'515.4
2018-Jun-14 06:58N 36°31' W 000°41'2818.6
2018-Jun-14 05:27N 36°40' W 000°07'3219.1
2018-Jun-14 03:45N 36°48' E 000°32'519.0
2018-Jun-14 03:30N 36°50' E 000°38'918.8
2018-Jun-14 03:00N 36°52' E 000°49'918.8
2018-Jun-14 02:30N 36°54' E 001°00'918.7
2018-Jun-14 02:00N 36°57' E 001°11'918.6
2018-Jun-14 01:30N 36°58' E 001°23'918.5
2018-Jun-14 01:00N 36°60' E 001°34'1018.5
2018-Jun-14 00:29N 37°01' E 001°47'3018.6
2018-Jun-13 22:53N 37°06' E 002°23'57418.2
2018-Jun-12 15:22N 36°17' E 014°16'719.2
2018-Jun-12 14:59N 36°14' E 014°25'1019.7
2018-Jun-12 14:30N 36°10' E 014°35'1019.8
2018-Jun-12 13:59N 36°06' E 014°47'1020.0
2018-Jun-12 13:30N 36°03' E 014°59'1019.7
2018-Jun-12 13:00N 36°01' E 015°10'1019.1
2018-Jun-12 12:29N 36°00' E 015°23'  

Dump ship's entire track history